Time,TemperatureF,DewpointF,PressureIn,WindDirection,WindDirectionDegrees,WindSpeedMPH,WindSpeedGustMPH,Humidity,HourlyPrecipIn,Conditions,Clouds,dailyrainin,SoftwareType,DateUTC
2013-01-22 00:04:00,41.0,27.0,29.62,SSE,161,0.0,2.0,56,0.00,,,0.00,,2013-01-22 05:04:00,
2013-01-22 00:12:00,41.0,27.0,29.62,SSE,161,0.0,2.0,56,0.00,,,0.00,,2013-01-22 05:12:00,
2013-01-22 00:23:00,41.0,27.0,29.63,SSW,194,0.0,3.0,56,0.00,,,0.00,,2013-01-22 05:23:00,
2013-01-22 00:33:00,40.0,26.0,29.63,North,0,0.0,3.0,56,0.00,,,0.00,,2013-01-22 05:33:00,
2013-01-22 00:43:00,40.0,26.0,29.63,North,0,0.0,3.0,56,0.00,,,0.00,,2013-01-22 05:43:00,
2013-01-22 00:52:00,40.0,26.0,29.64,SSW,208,0.0,7.0,56,0.00,,,0.00,,2013-01-22 05:52:00,
2013-01-22 01:02:00,40.0,26.0,29.64,WNW,296,0.0,1.0,57,0.00,,,0.00,,2013-01-22 06:02:00,
2013-01-22 01:12:00,40.0,26.0,29.64,WNW,296,0.0,1.0,57,0.00,,,0.00,,2013-01-22 06:12:00,
2013-01-22 01:22:00,39.0,25.0,29.65,West,273,0.0,2.0,58,0.00,,,0.00,,2013-01-22 06:22:00,
2013-01-22 01:33:00,39.0,25.0,29.65,North,352,0.0,5.0,57,0.00,,,0.00,,2013-01-22 06:33:00,
2013-01-22 01:43:00,39.0,25.0,29.65,North,352,0.0,5.0,57,0.00,,,0.00,,2013-01-22 06:43:00,
2013-01-22 01:52:00,38.0,25.0,29.65,North,352,0.0,1.0,58,0.00,,,0.00,,2013-01-22 06:52:00,
2013-01-22 02:02:00,37.0,24.0,29.67,North,352,0.0,0.0,59,0.00,,,0.00,,2013-01-22 07:02:00,
2013-01-22 02:12:00,37.0,24.0,29.67,North,352,0.0,0.0,59,0.00,,,0.00,,2013-01-22 07:12:00,
2013-01-22 02:22:00,36.0,23.0,29.67,North,352,0.0,0.0,59,0.00,,,0.00,,2013-01-22 07:22:00,
2013-01-22 02:33:00,35.0,25.0,29.67,NW,314,0.0,2.0,66,0.00,,,0.00,,2013-01-22 07:33:00,
2013-01-22 02:42:00,35.0,25.0,29.67,NW,314,0.0,2.0,66,0.00,,,0.00,,2013-01-22 07:42:00,
2013-01-22 02:52:00,35.0,24.0,29.68,WNW,302,0.0,5.0,63,0.00,,,0.00,,2013-01-22 07:52:00,
2013-01-22 03:02:00,35.0,24.0,29.70,NW,305,0.0,3.0,65,0.00,,,0.00,,2013-01-22 08:02:00,
2013-01-22 03:12:00,35.0,24.0,29.70,NW,305,0.0,3.0,65,0.00,,,0.00,,2013-01-22 08:12:00,
2013-01-22 03:22:00,35.0,23.0,29.70,NNW,341,0.0,3.0,62,0.00,,,0.00,,2013-01-22 08:22:00,
2013-01-22 03:32:00,34.0,22.0,29.71,NNW,329,0.0,0.0,62,0.00,,,0.00,,2013-01-22 08:32:00,
2013-01-22 03:42:00,34.0,22.0,29.71,NNW,329,0.0,0.0,62,0.00,,,0.00,,2013-01-22 08:42:00,
2013-01-22 03:52:00,34.0,22.0,29.71,NNW,335,0.0,2.0,61,0.00,,,0.00,,2013-01-22 08:52:00,
2013-01-22 04:02:00,34.0,21.0,29.72,North,6,0.0,5.0,58,0.00,,,0.00,,2013-01-22 09:02:00,
2013-01-22 04:12:00,34.0,21.0,29.72,North,6,0.0,5.0,58,0.00,,,0.00,,2013-01-22 09:12:00,
2013-01-22 04:22:00,34.0,20.0,29.72,North,359,1.0,6.0,55,0.00,,,0.00,,2013-01-22 09:22:00,
2013-01-22 04:32:00,33.0,20.0,29.72,NW,321,0.0,3.0,58,0.00,,,0.00,,2013-01-22 09:32:00,
2013-01-22 04:42:00,33.0,20.0,29.72,NW,321,0.0,3.0,58,0.00,,,0.00,,2013-01-22 09:42:00,
2013-01-22 04:52:00,33.0,20.0,29.73,NW,321,0.0,3.0,58,0.00,,,0.00,,2013-01-22 09:52:00,
2013-01-22 05:03:00,33.0,18.0,29.75,NNW,330,0.0,5.0,54,0.00,,,0.00,,2013-01-22 10:03:00,
2013-01-22 05:12:00,33.0,18.0,29.75,NNW,330,0.0,5.0,54,0.00,,,0.00,,2013-01-22 10:12:00,
2013-01-22 05:22:00,33.0,18.0,29.75,WNW,287,1.0,7.0,54,0.00,,,0.00,,2013-01-22 10:22:00,
2013-01-22 05:33:00,32.0,18.0,29.76,WNW,295,0.0,1.0,56,0.00,,,0.00,,2013-01-22 10:33:00,
2013-01-22 05:42:00,32.0,18.0,29.76,WNW,295,0.0,1.0,56,0.00,,,0.00,,2013-01-22 10:42:00,
2013-01-22 05:52:00,32.0,18.0,29.77,NW,308,2.0,5.0,55,0.00,,,0.00,,2013-01-22 10:52:00,
2013-01-22 06:02:00,31.0,17.0,29.78,NW,322,0.0,5.0,56,0.00,,,0.00,,2013-01-22 11:02:00,
2013-01-22 06:12:00,31.0,17.0,29.78,NW,322,0.0,5.0,56,0.00,,,0.00,,2013-01-22 11:12:00,
2013-01-22 06:23:00,31.0,16.0,29.79,NW,324,0.0,3.0,54,0.00,,,0.00,,2013-01-22 11:23:00,
2013-01-22 06:33:00,30.0,17.0,29.80,NW,311,0.0,3.0,59,0.00,,,0.00,,2013-01-22 11:33:00,
2013-01-22 06:43:00,30.0,17.0,29.80,NW,311,0.0,3.0,59,0.00,,,0.00,,2013-01-22 11:43:00,
2013-01-22 06:53:00,30.0,16.0,29.81,NNW,348,0.0,3.0,56,0.00,,,0.00,,2013-01-22 11:53:00,
2013-01-22 07:04:00,29.0,16.0,29.82,WNW,287,0.0,2.0,59,0.00,,,0.00,,2013-01-22 12:04:00,
2013-01-22 07:13:00,29.0,16.0,29.82,WNW,287,0.0,2.0,59,0.00,,,0.00,,2013-01-22 12:13:00,
2013-01-22 07:23:00,29.0,16.0,29.83,North,357,0.0,1.0,59,0.00,,,0.00,,2013-01-22 12:23:00,
2013-01-22 07:33:00,29.0,16.0,29.83,North,357,0.0,1.0,59,0.00,,,0.00,,2013-01-22 12:33:00,
2013-01-22 07:43:00,28.0,16.0,29.83,NNW,346,0.0,0.0,61,0.00,,,0.00,,2013-01-22 12:43:00,
2013-01-22 07:52:00,28.0,17.0,29.84,NNW,346,0.0,0.0,64,0.00,,,0.00,,2013-01-22 12:52:00,
2013-01-22 08:04:00,27.0,18.0,29.85,NW,318,0.0,0.0,68,0.00,,,0.00,,2013-01-22 13:04:00,
2013-01-22 08:13:00,27.0,18.0,29.85,NW,318,0.0,0.0,68,0.00,,,0.00,,2013-01-22 13:13:00,
2013-01-22 08:23:00,28.0,18.0,29.86,WNW,299,1.0,3.0,67,0.00,,,0.00,,2013-01-22 13:23:00,
2013-01-22 08:33:00,28.0,19.0,29.87,North,1,0.0,1.0,68,0.00,,,0.00,,2013-01-22 13:33:00,
2013-01-22 08:43:00,28.0,19.0,29.87,North,1,0.0,1.0,68,0.00,,,0.00,,2013-01-22 13:43:00,
2013-01-22 08:53:00,29.0,18.0,29.88,NNW,329,0.0,2.0,64,0.00,,,0.00,,2013-01-22 13:53:00,
2013-01-22 09:03:00,31.0,18.0,29.88,NNW,338,1.0,5.0,58,0.00,,,0.00,,2013-01-22 14:03:00,
2013-01-22 09:13:00,31.0,18.0,29.88,NNW,338,1.0,5.0,58,0.00,,,0.00,,2013-01-22 14:13:00,
2013-01-22 09:23:00,31.0,15.0,29.88,North,352,2.0,10.0,52,0.00,,,0.00,,2013-01-22 14:23:00,
2013-01-22 09:34:00,31.0,14.0,29.88,North,5,3.0,12.0,49,0.00,,,0.00,,2013-01-22 14:34:00,
2013-01-22 09:44:00,31.0,14.0,29.88,North,5,3.0,12.0,49,0.00,,,0.00,,2013-01-22 14:44:00,
2013-01-22 09:53:00,31.0,14.0,29.88,NNW,329,4.0,12.0,49,0.00,,,0.00,,2013-01-22 14:53:00,
2013-01-22 10:04:00,32.0,14.0,29.91,North,6,2.0,8.0,47,0.00,,,0.00,,2013-01-22 15:04:00,
2013-01-22 10:13:00,32.0,14.0,29.91,North,6,2.0,8.0,47,0.00,,,0.00,,2013-01-22 15:13:00,
2013-01-22 10:24:00,32.0,14.0,29.91,North,354,2.0,14.0,46,0.00,,,0.00,,2013-01-22 15:24:00,
2013-01-22 10:34:00,33.0,13.0,29.91,NW,319,2.0,12.0,44,0.00,,,0.00,,2013-01-22 15:34:00,
2013-01-22 10:43:00,33.0,13.0,29.91,NW,319,2.0,12.0,44,0.00,,,0.00,,2013-01-22 15:43:00,
2013-01-22 10:53:00,32.0,11.0,29.91,NW,326,3.0,12.0,41,0.00,,,0.00,,2013-01-22 15:53:00,
2013-01-22 11:04:00,33.0,12.0,29.92,WNW,296,4.0,16.0,41,0.00,,,0.00,,2013-01-22 16:04:00,
2013-01-22 11:13:00,33.0,12.0,29.92,WNW,296,4.0,16.0,41,0.00,,,0.00,,2013-01-22 16:13:00,
2013-01-22 11:23:00,34.0,12.0,29.91,NW,310,4.0,12.0,39,0.00,,,0.00,,2013-01-22 16:23:00,
2013-01-22 11:33:00,35.0,14.0,29.91,NW,323,2.0,12.0,41,0.00,,,0.00,,2013-01-22 16:33:00,
2013-01-22 11:43:00,35.0,14.0,29.91,NW,323,2.0,12.0,41,0.00,,,0.00,,2013-01-22 16:43:00,
2013-01-22 11:53:00,35.0,12.0,29.91,West,275,4.0,12.0,38,0.00,,,0.00,,2013-01-22 16:53:00,
2013-01-22 12:04:00,34.0,11.0,29.90,SW,221,5.0,10.0,37,0.00,,,0.00,,2013-01-22 17:04:00,
2013-01-22 12:13:00,34.0,11.0,29.90,SW,221,5.0,10.0,37,0.00,,,0.00,,2013-01-22 17:13:00,
2013-01-22 12:23:00,34.0,9.0,29.90,NNW,333,4.0,14.0,35,0.00,,,0.00,,2013-01-22 17:23:00,
2013-01-22 12:34:00,34.0,8.0,29.89,NW,317,3.0,12.0,33,0.00,,,0.00,,2013-01-22 17:34:00,
2013-01-22 12:43:00,34.0,8.0,29.89,NW,317,3.0,12.0,33,0.00,,,0.00,,2013-01-22 17:43:00,
2013-01-22 12:53:00,34.0,8.0,29.88,NW,307,5.0,10.0,33,0.00,,,0.00,,2013-01-22 17:53:00,
2013-01-22 13:04:00,35.0,9.0,29.87,NW,318,3.0,12.0,33,0.00,,,0.00,,2013-01-22 18:04:00,
2013-01-22 13:13:00,35.0,9.0,29.87,NW,318,3.0,12.0,33,0.00,,,0.00,,2013-01-22 18:13:00,
2013-01-22 13:23:00,34.0,8.0,29.87,NNW,347,3.0,12.0,33,0.00,,,0.00,,2013-01-22 18:23:00,
2013-01-22 13:34:00,34.0,8.0,29.87,WNW,287,3.0,10.0,33,0.00,,,0.00,,2013-01-22 18:34:00,
2013-01-22 13:43:00,34.0,8.0,29.87,WNW,287,3.0,10.0,33,0.00,,,0.00,,2013-01-22 18:43:00,
2013-01-22 13:53:00,35.0,9.0,29.86,NNW,341,3.0,10.0,33,0.00,,,0.00,,2013-01-22 18:53:00,
2013-01-22 14:04:00,35.0,9.0,29.86,NNE,14,1.0,12.0,34,0.00,,,0.00,,2013-01-22 19:04:00,
2013-01-22 14:13:00,35.0,9.0,29.86,NNE,14,1.0,12.0,34,0.00,,,0.00,,2013-01-22 19:13:00,
2013-01-22 14:23:00,35.0,7.0,29.86,NNW,331,5.0,12.0,31,0.00,,,0.00,,2013-01-22 19:23:00,
2013-01-22 14:34:00,35.0,7.0,29.86,WNW,292,2.0,8.0,31,0.00,,,0.00,,2013-01-22 19:34:00,
2013-01-22 14:43:00,35.0,7.0,29.86,WNW,292,2.0,8.0,31,0.00,,,0.00,,2013-01-22 19:43:00,
2013-01-22 14:53:00,35.0,8.0,29.87,ENE,69,3.0,10.0,32,0.00,,,0.00,,2013-01-22 19:53:00,
2013-01-22 15:03:00,35.0,8.0,29.87,NNW,342,3.0,9.0,32,0.00,,,0.00,,2013-01-22 20:03:00,
2013-01-22 15:13:00,35.0,8.0,29.87,NNW,342,3.0,9.0,32,0.00,,,0.00,,2013-01-22 20:13:00,
2013-01-22 15:23:00,35.0,9.0,29.87,North,6,3.0,12.0,34,0.00,,,0.00,,2013-01-22 20:23:00,
2013-01-22 15:33:00,35.0,9.0,29.86,South,189,1.0,9.0,34,0.00,,,0.00,,2013-01-22 20:33:00,
2013-01-22 15:43:00,35.0,9.0,29.86,South,189,1.0,9.0,34,0.00,,,0.00,,2013-01-22 20:43:00,
2013-01-22 15:53:00,35.0,9.0,29.87,NNE,21,1.0,9.0,33,0.00,,,0.00,,2013-01-22 20:53:00,
2013-01-22 16:04:00,35.0,9.0,29.88,SW,223,1.0,10.0,33,0.00,,,0.00,,2013-01-22 21:04:00,
2013-01-22 16:13:00,35.0,9.0,29.88,SW,223,1.0,10.0,33,0.00,,,0.00,,2013-01-22 21:13:00,
2013-01-22 16:23:00,34.0,8.0,29.88,NW,311,2.0,8.0,33,0.00,,,0.00,,2013-01-22 21:23:00,
2013-01-22 16:34:00,34.0,9.0,29.89,West,280,1.0,3.0,35,0.00,,,0.00,,2013-01-22 21:34:00,
2013-01-22 16:43:00,34.0,9.0,29.89,West,280,1.0,3.0,35,0.00,,,0.00,,2013-01-22 21:43:00,
2013-01-22 16:53:00,34.0,9.0,29.88,West,278,1.0,7.0,34,0.00,,,0.00,,2013-01-22 21:53:00,
2013-01-22 17:03:00,33.0,8.0,29.89,NNE,17,1.0,3.0,35,0.00,,,0.00,,2013-01-22 22:03:00,
2013-01-22 17:13:00,33.0,8.0,29.89,NNE,17,1.0,3.0,35,0.00,,,0.00,,2013-01-22 22:13:00,
2013-01-22 17:23:00,33.0,8.0,29.89,West,278,0.0,3.0,35,0.00,,,0.00,,2013-01-22 22:23:00,
2013-01-22 17:33:00,33.0,8.0,29.89,West,278,0.0,3.0,35,0.00,,,0.00,,2013-01-22 22:33:00,
2013-01-22 17:43:00,32.0,9.0,29.89,NNW,330,0.0,0.0,38,0.00,,,0.00,,2013-01-22 22:43:00,
2013-01-22 17:53:00,32.0,9.0,29.90,WNW,294,0.0,1.0,38,0.00,,,0.00,,2013-01-22 22:53:00,
2013-01-22 18:03:00,31.0,12.0,29.89,WNW,294,0.0,0.0,45,0.00,,,0.00,,2013-01-22 23:03:00,
2013-01-22 18:12:00,31.0,12.0,29.89,WNW,294,0.0,0.0,45,0.00,,,0.00,,2013-01-22 23:12:00,
2013-01-22 18:24:00,30.0,12.0,29.90,WNW,294,0.0,0.0,47,0.00,,,0.00,,2013-01-22 23:24:00,
2013-01-22 18:33:00,28.0,11.0,29.91,WNW,294,0.0,0.0,48,0.00,,,0.00,,2013-01-22 23:33:00,
2013-01-22 18:43:00,28.0,11.0,29.91,WNW,294,0.0,0.0,48,0.00,,,0.00,,2013-01-22 23:43:00,
2013-01-22 18:53:00,28.0,11.0,29.92,WNW,294,0.0,0.0,49,0.00,,,0.00,,2013-01-22 23:53:00,
2013-01-22 19:03:00,27.0,13.0,29.92,WNW,294,0.0,0.0,56,0.00,,,0.00,,2013-01-23 00:03:00,
2013-01-22 19:12:00,27.0,13.0,29.92,WNW,294,0.0,0.0,56,0.00,,,0.00,,2013-01-23 00:12:00,
2013-01-22 19:23:00,27.0,14.0,29.92,WNW,294,0.0,0.0,58,0.00,,,0.00,,2013-01-23 00:23:00,
2013-01-22 19:33:00,26.0,14.0,29.92,WNW,294,0.0,0.0,59,0.00,,,0.00,,2013-01-23 00:33:00,
2013-01-22 19:43:00,26.0,14.0,29.92,WNW,294,0.0,0.0,59,0.00,,,0.00,,2013-01-23 00:43:00,
2013-01-22 19:52:00,26.0,11.0,29.93,WNW,294,0.0,0.0,53,0.00,,,0.00,,2013-01-23 00:52:00,
2013-01-22 20:03:00,26.0,13.0,29.93,WNW,294,0.0,0.0,58,0.00,,,0.00,,2013-01-23 01:03:00,
2013-01-22 20:13:00,26.0,13.0,29.93,WNW,294,0.0,0.0,58,0.00,,,0.00,,2013-01-23 01:13:00,
2013-01-22 20:23:00,25.0,13.0,29.93,WNW,294,0.0,0.0,60,0.00,,,0.00,,2013-01-23 01:23:00,
2013-01-22 20:33:00,25.0,13.0,29.93,WNW,294,0.0,0.0,60,0.00,,,0.00,,2013-01-23 01:33:00,
2013-01-22 20:43:00,25.0,13.0,29.93,WNW,294,0.0,0.0,60,0.00,,,0.00,,2013-01-23 01:43:00,
2013-01-22 20:52:00,25.0,12.0,29.94,WNW,294,0.0,0.0,58,0.00,,,0.00,,2013-01-23 01:52:00,
2013-01-22 21:03:00,24.0,12.0,29.94,WNW,294,0.0,0.0,60,0.00,,,0.00,,2013-01-23 02:03:00,
2013-01-22 21:13:00,24.0,12.0,29.94,WNW,294,0.0,0.0,60,0.00,,,0.00,,2013-01-23 02:13:00,
2013-01-22 21:23:00,24.0,12.0,29.94,WNW,294,0.0,0.0,60,0.00,,,0.00,,2013-01-23 02:23:00,
2013-01-22 21:33:00,23.0,12.0,29.94,WNW,294,0.0,0.0,61,0.00,,,0.00,,2013-01-23 02:33:00,
2013-01-22 21:43:00,23.0,12.0,29.94,WNW,294,0.0,0.0,61,0.00,,,0.00,,2013-01-23 02:43:00,
2013-01-22 21:53:00,23.0,12.0,29.94,WNW,294,0.0,0.0,61,0.00,,,0.00,,2013-01-23 02:53:00,
2013-01-22 22:03:00,22.0,12.0,29.94,WNW,294,0.0,0.0,64,0.00,,,0.00,,2013-01-23 03:03:00,
2013-01-22 22:13:00,22.0,12.0,29.94,WNW,294,0.0,0.0,64,0.00,,,0.00,,2013-01-23 03:13:00,
2013-01-22 22:23:00,22.0,12.0,29.94,WNW,294,0.0,0.0,64,0.00,,,0.00,,2013-01-23 03:23:00,
2013-01-22 22:33:00,22.0,13.0,29.96,WNW,294,0.0,0.0,67,0.00,,,0.00,,2013-01-23 03:33:00,
2013-01-22 22:43:00,22.0,13.0,29.96,WNW,294,0.0,0.0,67,0.00,,,0.00,,2013-01-23 03:43:00,
2013-01-22 22:53:00,22.0,13.0,29.96,WNW,294,0.0,0.0,69,0.00,,,0.00,,2013-01-23 03:53:00,
2013-01-22 23:03:00,21.0,14.0,29.98,WNW,294,0.0,0.0,74,0.00,,,0.00,,2013-01-23 04:03:00,
2013-01-22 23:12:00,21.0,14.0,29.98,WNW,294,0.0,0.0,74,0.00,,,0.00,,2013-01-23 04:12:00,
2013-01-22 23:23:00,21.0,14.0,29.98,WNW,294,0.0,0.0,75,0.00,,,0.00,,2013-01-23 04:23:00,
2013-01-22 23:33:00,20.0,13.0,29.97,WNW,294,0.0,0.0,75,0.00,,,0.00,,2013-01-23 04:33:00,
2013-01-22 23:43:00,20.0,13.0,29.97,WNW,294,0.0,0.0,75,0.00,,,0.00,,2013-01-23 04:43:00,
2013-01-22 23:53:00,20.0,13.0,29.97,WNW,294,0.0,0.0,75,0.00,,,0.00,,2013-01-23 04:53:00,